Time;durP1;ratioP1;P1;durP2;ratioP2;P2;SDS_P1;SDS_P2;PMS_P1;PMS_P2;Temp;Humidity;BMP_temperature;BMP_pressure;BME280_temperature;BME280_humidity;BME280_pressure;Samples;Min_cycle;Max_cycle;Signal;HPM_P1;HPM_P2
2023/07/31 00:00:13;;;;;;;5.03;1.48;;;24.50;94.40;;;;;;7402107;19;19942;-74
2023/07/31 00:02:39;;;;;;;4.93;1.50;;;24.50;94.50;;;;;;7401668;19;19988;-74
2023/07/31 00:05:05;;;;;;;7.05;1.38;;;24.60;94.00;;;;;;7402473;19;19923;-74
2023/07/31 00:07:32;;;;;;;5.85;1.40;;;24.70;93.70;;;;;;7400840;19;19922;-73
2023/07/31 00:09:58;;;;;;;4.13;1.20;;;24.70;93.00;;;;;;7404990;19;19914;-73
2023/07/31 00:12:24;;;;;;;4.78;1.42;;;24.70;91.10;;;;;;7401551;19;19936;-74
2023/07/31 00:14:50;;;;;;;6.07;1.30;;;24.70;90.70;;;;;;7403399;19;19946;-74
2023/07/31 00:17:18;;;;;;;6.72;1.42;;;24.70;86.10;;;;;;7398984;19;19911;-73
2023/07/31 00:19:45;;;;;;;5.95;1.42;;;24.80;87.10;;;;;;7349442;19;20078;-73
2023/07/31 00:22:12;;;;;;;3.47;1.00;;;24.70;86.90;;;;;;7401287;19;19966;-73
2023/07/31 00:24:38;;;;;;;3.10;1.10;;;24.70;87.30;;;;;;7403379;19;19926;-74
2023/07/31 00:27:04;;;;;;;4.78;1.45;;;24.80;86.80;;;;;;7398956;19;19914;-74
2023/07/31 00:29:30;;;;;;;3.92;1.20;;;24.80;86.80;;;;;;7402412;19;20313;-74
2023/07/31 00:31:58;;;;;;;3.63;1.13;;;24.80;85.40;;;;;;7401897;19;20005;-73
2023/07/31 00:34:23;;;;;;;3.00;1.10;;;24.90;84.60;;;;;;7401350;19;19923;-74
2023/07/31 00:36:49;;;;;;;4.22;0.98;;;24.80;82.70;;;;;;7404176;19;19922;-73
2023/07/31 00:39:15;;;;;;;5.72;1.15;;;24.80;82.20;;;;;;7402406;19;20594;-74
2023/07/31 00:41:41;;;;;;;3.90;1.17;;;24.80;81.70;;;;;;7401259;19;20379;-74
2023/07/31 00:44:06;;;;;;;3.90;1.25;;;24.90;80.40;;;;;;7401969;19;19979;-73
2023/07/31 00:46:32;;;;;;;4.90;1.05;;;24.90;80.70;;;;;;7402084;19;19925;-74
2023/07/31 00:48:59;;;;;;;2.90;1.08;;;24.90;80.80;;;;;;7399162;19;19923;-73
2023/07/31 00:51:25;;;;;;;3.58;1.15;;;24.80;81.00;;;;;;7398006;19;19930;-74
2023/07/31 00:53:54;;;;;;;3.25;1.13;;;24.80;80.50;;;;;;7400118;19;19914;-76
2023/07/31 00:56:19;;;;;;;4.35;1.17;;;24.90;79.30;;;;;;7399921;19;19939;-74
2023/07/31 00:58:45;;;;;;;4.28;1.33;;;24.90;78.70;;;;;;7401695;19;19918;-74
2023/07/31 01:01:11;;;;;;;4.78;1.40;;;24.90;78.10;;;;;;7399601;19;20335;-74
2023/07/31 01:03:37;;;;;;;2.95;1.27;;;24.90;78.10;;;;;;7400918;19;19907;-74
2023/07/31 01:06:21;;;;;;;2.92;1.20;;;24.90;78.10;;;;;;7399099;19;19919;-73
2023/07/31 01:09:20;;;;;;;2.58;1.00;;;24.90;77.50;;;;;;7400049;19;19926;-74
2023/07/31 01:12:02;;;;;;;3.38;1.10;;;24.80;77.20;;;;;;7399659;19;19914;-73
2023/07/31 01:14:28;;;;;;;2.72;0.90;;;24.80;77.30;;;;;;7400092;19;19919;-74
2023/07/31 01:16:54;;;;;;;3.90;1.02;;;24.80;77.10;;;;;;7347701;19;19911;-73
2023/07/31 01:19:26;;;;;;;3.40;1.20;;;24.80;76.90;;;;;;7398903;19;19918;-74
2023/07/31 01:22:13;;;;;;;3.20;0.93;;;24.80;76.70;;;;;;7398486;19;19915;-73
2023/07/31 01:25:05;;;;;;;2.45;0.80;;;24.80;76.50;;;;;;7400717;19;20193;-73
2023/07/31 01:27:38;;;;;;;3.40;0.90;;;24.80;76.40;;;;;;7376515;19;19914;-74
2023/07/31 01:30:20;;;;;;;3.33;1.00;;;24.80;76.00;;;;;;7401162;19;19910;-73
2023/07/31 01:32:48;;;;;;;3.00;1.00;;;24.80;75.40;;;;;;7399936;19;19919;-73
2023/07/31 01:35:15;;;;;;;3.35;1.13;;;24.80;75.10;;;;;;7399358;19;20009;-74
2023/07/31 01:37:40;;;;;;;3.47;1.30;;;24.80;74.70;;;;;;7400454;19;19974;-73
2023/07/31 01:40:07;;;;;;;2.85;0.93;;;24.80;74.20;;;;;;7394354;19;20442;-73
2023/07/31 01:42:33;;;;;;;2.97;1.02;;;24.80;74.00;;;;;;7400387;19;19982;-73
2023/07/31 01:44:58;;;;;;;3.40;1.05;;;24.90;73.10;;;;;;7400810;19;19939;-73
2023/07/31 01:47:24;;;;;;;3.97;1.20;;;24.90;71.80;;;;;;7400374;19;19915;-74
2023/07/31 01:49:50;;;;;;;2.13;0.88;;;24.90;71.30;;;;;;7399936;19;20263;-73
2023/07/31 01:52:16;;;;;;;4.60;1.10;;;24.90;71.10;;;;;;7367941;19;20563;-73
2023/07/31 01:54:42;;;;;;;2.83;1.10;;;24.90;70.60;;;;;;7401102;19;19915;-74
2023/07/31 01:57:07;;;;;;;2.83;0.85;;;24.90;70.30;;;;;;7399987;19;19922;-74
2023/07/31 01:59:34;;;;;;;2.72;0.85;;;24.90;70.00;;;;;;7399509;19;19914;-74
2023/07/31 02:02:00;;;;;;;3.38;0.82;;;24.90;69.90;;;;;;7398803;19;20027;-74
2023/07/31 02:04:26;;;;;;;2.90;1.30;;;24.80;70.10;;;;;;7398813;19;20343;-74
2023/07/31 02:06:53;;;;;;;3.38;0.90;;;24.80;69.40;;;;;;7400835;19;19918;-74
2023/07/31 02:09:19;;;;;;;2.67;0.80;;;24.90;69.20;;;;;;7397997;19;19935;-73
2023/07/31 02:11:45;;;;;;;2.70;1.20;;;24.90;69.00;;;;;;7400232;19;19974;-74
2023/07/31 02:14:11;;;;;;;3.10;0.93;;;24.90;68.80;;;;;;7398112;19;20647;-74
2023/07/31 02:16:36;;;;;;;3.30;1.00;;;24.90;68.30;;;;;;7402425;19;20357;-74
2023/07/31 02:19:02;;;;;;;2.05;0.98;;;24.80;67.80;;;;;;7373834;19;19939;-74
2023/07/31 02:21:28;;;;;;;2.85;0.90;;;24.90;67.10;;;;;;7399148;19;19978;-74
2023/07/31 02:23:54;;;;;;;2.22;0.90;;;24.90;66.90;;;;;;7399756;19;19929;-74
2023/07/31 02:26:20;;;;;;;4.38;0.98;;;25.00;66.60;;;;;;7398227;19;19930;-73
2023/07/31 02:28:46;;;;;;;2.47;0.93;;;25.00;66.50;;;;;;7344226;19;19929;-73
2023/07/31 02:31:12;;;;;;;2.10;0.77;;;25.00;66.10;;;;;;7397703;19;19918;-73
2023/07/31 02:33:37;;;;;;;2.20;1.02;;;25.00;66.00;;;;;;7398502;19;20267;-74
2023/07/31 02:36:03;;;;;;;2.65;0.93;;;25.00;65.50;;;;;;7399999;19;19929;-73
2023/07/31 02:38:29;;;;;;;2.90;0.93;;;25.00;65.50;;;;;;7398684;19;20240;-74
2023/07/31 02:40:55;;;;;;;2.25;0.80;;;25.00;65.30;;;;;;7401381;19;19934;-73
2023/07/31 02:43:21;;;;;;;2.65;1.00;;;25.00;64.80;;;;;;7396879;19;19924;-73
2023/07/31 02:45:54;;;;;;;2.25;1.00;;;25.00;64.90;;;;;;7399485;19;19922;-73
2023/07/31 02:48:20;;;;;;;3.05;0.90;;;25.00;64.60;;;;;;7398700;19;19923;-75
2023/07/31 02:50:47;;;;;;;1.83;0.77;;;25.00;64.50;;;;;;7401262;19;19922;-73
2023/07/31 02:53:13;;;;;;;2.35;1.00;;;25.00;64.50;;;;;;7405171;19;19921;-74
2023/07/31 02:55:39;;;;;;;2.88;0.98;;;25.00;64.50;;;;;;7405803;19;20509;-74
2023/07/31 02:58:05;;;;;;;3.97;1.10;;;25.00;64.50;;;;;;7401783;19;19925;-74
2023/07/31 03:00:31;;;;;;;2.75;1.50;;;25.00;64.60;;;;;;7406976;19;20336;-75
2023/07/31 03:02:56;;;;;;;3.15;1.13;;;25.00;64.70;;;;;;7404447;19;19914;-74
2023/07/31 03:05:22;;;;;;;2.28;1.00;;;25.00;64.80;;;;;;7403916;19;20002;-74
2023/07/31 03:07:48;;;;;;;2.92;1.05;;;25.00;65.00;;;;;;7403150;19;19929;-73
2023/07/31 03:10:14;;;;;;;2.10;0.93;;;25.00;64.90;;;;;;7403933;19;19919;-73
2023/07/31 03:12:40;;;;;;;2.90;1.10;;;25.00;64.90;;;;;;7406978;19;19943;-74
2023/07/31 03:15:07;;;;;;;2.85;0.93;;;25.00;64.90;;;;;;7404006;19;20375;-74
2023/07/31 03:17:33;;;;;;;3.63;0.95;;;25.00;65.00;;;;;;7356414;19;19918;-74
2023/07/31 03:20:00;;;;;;;3.35;1.85;;;25.00;64.90;;;;;;7406410;19;19930;-74
2023/07/31 03:22:25;;;;;;;3.28;1.30;;;25.00;64.90;;;;;;7403539;19;19919;-74
2023/07/31 03:24:51;;;;;;;3.08;0.80;;;25.00;64.60;;;;;;7404446;19;19918;-73
2023/07/31 03:27:19;;;;;;;2.90;1.20;;;25.00;65.10;;;;;;7401722;19;20019;-74
2023/07/31 03:29:45;;;;;;;2.63;1.13;;;24.90;64.90;;;;;;7404341;19;20357;-73
2023/07/31 03:32:11;;;;;;;2.67;0.90;;;24.90;65.10;;;;;;7404361;19;19985;-73
2023/07/31 03:34:37;;;;;;;2.88;1.00;;;24.90;65.20;;;;;;7405358;19;20334;-74
2023/07/31 03:37:04;;;;;;;2.42;0.90;;;24.90;65.00;;;;;;7403922;19;19918;-73
2023/07/31 03:39:30;;;;;;;2.92;0.90;;;24.90;65.10;;;;;;7405014;19;19918;-74
2023/07/31 03:41:56;;;;;;;3.65;0.90;;;24.90;65.00;;;;;;7405288;19;19942;-75
2023/07/31 03:44:22;;;;;;;3.63;1.20;;;24.90;64.90;;;;;;7403152;19;19923;-73
2023/07/31 03:46:48;;;;;;;1.85;0.80;;;24.90;65.20;;;;;;7403640;19;20338;-73
2023/07/31 03:49:13;;;;;;;2.45;0.93;;;24.90;65.10;;;;;;7401840;19;19937;-73
2023/07/31 03:51:39;;;;;;;2.88;1.13;;;24.90;65.20;;;;;;7404378;19;20263;-74
2023/07/31 03:54:07;;;;;;;2.80;0.95;;;24.90;65.80;;;;;;7349861;19;19921;-75
2023/07/31 03:56:33;;;;;;;3.20;1.20;;;24.90;65.90;;;;;;7403786;19;19933;-74
2023/07/31 03:58:59;;;;;;;3.63;1.55;;;24.90;66.10;;;;;;7406030;19;19930;-74
2023/07/31 04:01:26;;;;;;;4.00;1.30;;;24.90;66.60;;;;;;7402518;19;20235;-74
2023/07/31 04:03:52;;;;;;;3.65;1.10;;;24.80;66.60;;;;;;7403294;19;19931;-74
2023/07/31 04:06:18;;;;;;;;;;;24.80;66.90;;;;;;7407731;19;20380;-74
2023/07/31 04:08:47;;;;;;;4.65;1.35;;;24.80;67.10;;;;;;7404214;19;19999;-73
2023/07/31 04:11:13;;;;;;;3.78;1.20;;;24.80;67.60;;;;;;7403020;19;19928;-75
2023/07/31 04:13:39;;;;;;;4.05;1.33;;;24.80;68.00;;;;;;7402375;19;19918;-74
2023/07/31 04:16:05;;;;;;;6.70;1.70;;;24.80;68.30;;;;;;7401919;19;20640;-74
2023/07/31 04:18:32;;;;;;;4.63;2.05;;;24.80;69.30;;;;;;7403060;19;20343;-74
2023/07/31 04:20:58;;;;;;;5.15;1.58;;;24.80;70.70;;;;;;7405866;19;20958;-73
2023/07/31 04:23:24;;;;;;;;;;;24.70;70.00;;;;;;7408933;19;19922;-73
2023/07/31 04:25:50;;;;;;;3.97;1.77;;;24.70;70.30;;;;;;7403617;19;19931;-73
2023/07/31 04:28:16;;;;;;;5.05;2.33;;;24.70;70.50;;;;;;7379222;19;19978;-74
2023/07/31 04:30:42;;;;;;;4.88;2.10;;;24.70;72.10;;;;;;7402136;19;19914;-74
2023/07/31 04:33:08;;;;;;;6.75;3.17;;;24.70;72.90;;;;;;7400710;19;19919;-75
2023/07/31 04:35:33;;;;;;;6.13;2.95;;;24.60;77.50;;;;;;7404394;19;19922;-73
2023/07/31 04:37:59;;;;;;;6.90;3.83;;;24.60;77.10;;;;;;7402520;19;19918;-75
2023/07/31 04:40:25;;;;;;;10.20;3.40;;;24.60;80.30;;;;;;7401292;19;19929;-75
2023/07/31 04:42:51;;;;;;;7.55;4.07;;;24.60;80.50;;;;;;7405368;19;19919;-75
2023/07/31 04:45:17;;;;;;;9.55;4.10;;;24.70;80.40;;;;;;7401771;19;19935;-75
2023/07/31 04:47:42;;;;;;;7.28;3.60;;;24.70;80.10;;;;;;7401200;19;19962;-73
2023/07/31 04:50:09;;;;;;;7.05;3.70;;;24.70;80.00;;;;;;7402115;19;19914;-74
2023/07/31 04:52:34;;;;;;;7.03;3.03;;;24.70;79.80;;;;;;7403796;19;19923;-73
2023/07/31 04:55:00;;;;;;;5.97;2.88;;;24.70;78.40;;;;;;7401713;19;19925;-75
2023/07/31 04:57:26;;;;;;;5.07;2.70;;;24.70;77.50;;;;;;7400546;19;19931;-75
2023/07/31 04:59:52;;;;;;;4.97;2.30;;;24.70;76.90;;;;;;7404441;19;19915;-74
2023/07/31 05:02:18;;;;;;;4.65;2.53;;;24.70;75.60;;;;;;7400314;19;20252;-74
2023/07/31 05:04:44;;;;;;;6.35;2.13;;;24.70;75.30;;;;;;7403022;19;20263;-73
2023/07/31 05:07:10;;;;;;;5.40;2.58;;;24.70;74.80;;;;;;7402612;19;20343;-74
2023/07/31 05:09:35;;;;;;;4.78;2.05;;;24.80;74.80;;;;;;7399620;19;20241;-74
2023/07/31 05:12:04;;;;;;;4.32;2.20;;;24.70;74.30;;;;;;7402007;19;19918;-74
2023/07/31 05:14:30;;;;;;;4.13;2.10;;;24.80;73.40;;;;;;7397555;19;19924;-73
2023/07/31 05:16:55;;;;;;;4.20;1.90;;;24.80;72.40;;;;;;7401634;19;20324;-74
2023/07/31 05:19:21;;;;;;;6.05;1.73;;;24.80;72.20;;;;;;7401009;19;20251;-72
2023/07/31 05:21:47;;;;;;;4.70;1.48;;;24.80;71.80;;;;;;7404372;19;19919;-73
2023/07/31 05:24:13;;;;;;;3.40;1.52;;;24.80;71.20;;;;;;7401733;19;20010;-74
2023/07/31 05:26:39;;;;;;;4.45;1.40;;;24.80;71.20;;;;;;7401006;19;19926;-74
2023/07/31 05:29:05;;;;;;;4.22;1.70;;;24.80;71.20;;;;;;7399451;19;19922;-74
2023/07/31 05:31:32;;;;;;;5.68;1.88;;;24.90;71.50;;;;;;7403175;19;20280;-74
2023/07/31 05:33:58;;;;;;;5.47;1.80;;;25.00;71.30;;;;;;7403335;19;19919;-74
2023/07/31 05:36:24;;;;;;;4.18;2.15;;;25.00;71.40;;;;;;7400791;19;19929;-73
2023/07/31 05:38:51;;;;;;;4.95;2.10;;;25.10;71.80;;;;;;7401619;19;19926;-74
2023/07/31 05:41:18;;;;;;;4.35;1.90;;;25.20;71.80;;;;;;7399620;19;20002;-73
2023/07/31 05:43:44;;;;;;;4.63;1.92;;;25.30;72.00;;;;;;7400765;19;19935;-72
2023/07/31 05:46:09;;;;;;;5.25;1.77;;;25.30;72.10;;;;;;7400990;19;19918;-73
2023/07/31 05:48:35;;;;;;;4.03;1.67;;;25.40;71.80;;;;;;7402706;19;19962;-74
2023/07/31 05:51:02;;;;;;;5.88;1.67;;;25.40;71.80;;;;;;7404120;19;20918;-73
2023/07/31 05:53:27;;;;;;;;;;;25.40;71.80;;;;;;7404549;19;19919;-74
2023/07/31 05:55:53;;;;;;;4.45;1.77;;;25.30;72.20;;;;;;7401856;19;19921;-75
2023/07/31 05:58:19;;;;;;;4.35;1.58;;;25.40;72.50;;;;;;7401864;19;20117;-74
2023/07/31 06:00:45;;;;;;;4.10;1.50;;;25.40;72.70;;;;;;7403654;19;20327;-74
2023/07/31 06:03:11;;;;;;;3.95;1.70;;;25.50;73.00;;;;;;7401203;19;19922;-74
2023/07/31 06:05:36;;;;;;;3.80;1.13;;;25.50;74.80;;;;;;7401206;19;19926;-74
2023/07/31 06:08:02;;;;;;;3.92;1.40;;;25.50;75.60;;;;;;7401772;19;19926;-73
2023/07/31 06:10:28;;;;;;;6.20;1.60;;;25.40;78.10;;;;;;7403190;19;20013;-74
2023/07/31 06:12:54;;;;;;;6.43;1.63;;;25.40;78.80;;;;;;7402849;19;20288;-74
2023/07/31 06:15:20;;;;;;;7.68;1.75;;;25.40;79.20;;;;;;7400378;19;19918;-74
2023/07/31 06:17:46;;;;;;;5.95;1.50;;;25.40;80.10;;;;;;7400089;19;19935;-73
2023/07/31 06:20:12;;;;;;;6.75;1.63;;;25.30;80.80;;;;;;7401043;19;19939;-74
2023/07/31 06:22:38;;;;;;;6.20;1.30;;;25.40;82.90;;;;;;7399942;19;19927;-74
2023/07/31 06:25:04;;;;;;;4.57;1.60;;;25.30;84.40;;;;;;7404022;19;19923;-74
2023/07/31 06:27:30;;;;;;;5.13;2.08;;;25.20;85.70;;;;;;7407084;19;19914;-74
2023/07/31 06:29:55;;;;;;;4.80;1.52;;;25.20;86.70;;;;;;7407430;19;19944;-74
2023/07/31 06:32:21;;;;;;;6.90;1.80;;;25.20;89.60;;;;;;7404437;19;19947;-74
2023/07/31 06:34:47;;;;;;;4.63;1.20;;;25.30;88.60;;;;;;7406030;19;19923;-74
2023/07/31 06:37:13;;;;;;;5.38;1.30;;;25.20;89.20;;;;;;7401617;19;19970;-75
2023/07/31 06:39:39;;;;;;;6.50;1.65;;;25.30;89.80;;;;;;7405828;19;19927;-75
2023/07/31 06:42:05;;;;;;;7.82;1.95;;;25.30;89.40;;;;;;7405165;19;19918;-74
2023/07/31 06:44:31;;;;;;;4.80;1.50;;;25.30;89.70;;;;;;7407324;19;19919;-75
2023/07/31 06:46:56;;;;;;;8.57;1.77;;;25.30;90.20;;;;;;7405446;19;19941;-75
2023/07/31 06:49:22;;;;;;;6.43;1.52;;;25.30;90.20;;;;;;7403578;19;19976;-74
2023/07/31 06:51:48;;;;;;;5.30;1.58;;;25.40;90.70;;;;;;7401638;19;19919;-74
2023/07/31 06:54:14;;;;;;;6.78;1.88;;;25.30;90.60;;;;;;7404971;19;19918;-74
2023/07/31 06:56:40;;;;;;;8.80;2.08;;;25.30;91.20;;;;;;7408093;19;19982;-75
2023/07/31 06:59:05;;;;;;;5.85;1.40;;;25.30;91.70;;;;;;7405691;19;19922;-74
2023/07/31 07:01:31;;;;;;;6.43;1.60;;;25.40;91.40;;;;;;7409042;19;20353;-74
2023/07/31 07:04:01;;;;;;;5.32;1.40;;;25.40;91.50;;;;;;7406127;19;19923;-74
2023/07/31 07:06:27;;;;;;;8.50;1.55;;;25.30;91.90;;;;;;7407951;19;19923;-74
2023/07/31 07:08:52;;;;;;;5.65;1.83;;;25.30;92.40;;;;;;7405786;19;19991;-74
2023/07/31 07:11:18;;;;;;;7.03;1.45;;;25.30;92.80;;;;;;7408835;19;19910;-74
2023/07/31 07:13:44;;;;;;;4.10;1.10;;;25.30;93.20;;;;;;7407811;19;19923;-75
2023/07/31 07:16:10;;;;;;;5.68;1.42;;;25.40;93.30;;;;;;7408254;19;19918;-75
2023/07/31 07:18:36;;;;;;;6.55;1.20;;;25.30;93.30;;;;;;7404419;19;19970;-74
2023/07/31 07:21:02;;;;;;;4.57;1.20;;;25.40;93.40;;;;;;7407801;19;19923;-74
2023/07/31 07:23:28;;;;;;;4.85;1.30;;;25.50;93.30;;;;;;7405953;19;19922;-74
2023/07/31 07:25:54;;;;;;;7.53;1.50;;;25.50;92.90;;;;;;7405876;19;19978;-74
2023/07/31 07:28:20;;;;;;;5.07;1.45;;;25.50;93.30;;;;;;7405583;19;19926;-74
2023/07/31 07:30:52;;;;;;;7.55;1.90;;;25.50;93.40;;;;;;7408388;19;19993;-74
2023/07/31 07:33:19;;;;;;;5.97;1.70;;;25.50;93.50;;;;;;7404876;19;19963;-74
2023/07/31 07:35:44;;;;;;;9.43;1.90;;;25.60;93.60;;;;;;7407349;19;20246;-74
2023/07/31 07:38:10;;;;;;;5.07;1.52;;;25.50;93.60;;;;;;7403630;19;19990;-73
2023/07/31 07:40:40;;;;;;;7.25;2.05;;;25.50;94.10;;;;;;7406039;19;19926;-74
2023/07/31 07:43:06;;;;;;;5.38;1.80;;;25.40;94.30;;;;;;7405794;19;19932;-74
2023/07/31 07:45:31;;;;;;;7.35;1.95;;;25.50;94.40;;;;;;7407621;19;19923;-74
2023/07/31 07:47:58;;;;;;;6.63;2.00;;;25.60;94.70;;;;;;7404306;19;21303;-74
2023/07/31 07:50:25;;;;;;;5.82;1.67;;;25.60;94.70;;;;;;7402706;19;19982;-74
2023/07/31 07:52:51;;;;;;;;;;;25.50;95.30;;;;;;7406149;19;19919;-75
2023/07/31 07:55:17;;;;;;;6.97;2.75;;;25.40;95.30;;;;;;7404721;19;19914;-75
2023/07/31 07:57:44;;;;;;;6.85;2.60;;;25.50;95.40;;;;;;7405546;19;19923;-75
2023/07/31 08:00:10;;;;;;;9.15;2.72;;;25.30;95.80;;;;;;7405359;19;19950;-74
2023/07/31 08:02:36;;;;;;;;;;;25.40;96.20;;;;;;7404581;19;20235;-74
2023/07/31 08:05:02;;;;;;;5.97;1.90;;;25.50;95.90;;;;;;7403046;19;19923;-74
2023/07/31 08:07:28;;;;;;;6.65;2.42;;;25.60;95.70;;;;;;7403793;19;19915;-73
2023/07/31 08:09:53;;;;;;;9.32;2.30;;;25.60;95.60;;;;;;7358129;19;20536;-75
2023/07/31 08:12:19;;;;;;;6.63;1.92;;;25.60;95.90;;;;;;7406965;19;19930;-74
2023/07/31 08:14:45;;;;;;;4.72;1.85;;;25.60;96.30;;;;;;7407909;19;19911;-75
2023/07/31 08:17:11;;;;;;;6.35;2.10;;;25.60;96.50;;;;;;7408250;19;19926;-74
2023/07/31 08:19:36;;;;;;;7.57;1.92;;;25.60;96.40;;;;;;7408985;19;19921;-75
2023/07/31 08:22:02;;;;;;;6.45;1.83;;;25.40;96.90;;;;;;7406202;19;19922;-75
2023/07/31 08:24:28;;;;;;;5.57;2.10;;;25.40;97.00;;;;;;7406711;19;20776;-75
2023/07/31 08:26:54;;;;;;;8.18;2.28;;;25.60;96.80;;;;;;7403060;19;19924;-74
2023/07/31 08:29:20;;;;;;;9.55;2.50;;;25.60;96.80;;;;;;7396902;19;20493;-75
2023/07/31 08:31:47;;;;;;;6.38;2.00;;;25.50;97.20;;;;;;7400000;19;19926;-75
2023/07/31 08:34:12;;;;;;;8.20;1.98;;;25.50;97.10;;;;;;7396200;19;19926;-75
2023/07/31 08:36:38;;;;;;;5.45;1.90;;;25.70;97.10;;;;;;7403477;19;21003;-75
2023/07/31 08:39:04;;;;;;;5.88;2.28;;;25.70;96.70;;;;;;7399097;19;19918;-76
2023/07/31 08:41:30;;;;;;;7.65;3.28;;;25.80;96.70;;;;;;7400141;19;19918;-76
2023/07/31 08:43:58;;;;;;;5.22;2.10;;;25.80;97.00;;;;;;7401858;19;19921;-75
2023/07/31 08:46:25;;;;;;;11.40;2.40;;;25.70;97.00;;;;;;7403045;19;19906;-75
2023/07/31 08:48:52;;;;;;;7.75;1.90;;;25.70;97.40;;;;;;7347425;19;20793;-76
2023/07/31 08:51:18;;;;;;;7.38;2.10;;;25.80;96.60;;;;;;7401756;19;20308;-75
2023/07/31 08:53:44;;;;;;;7.10;2.45;;;25.60;97.40;;;;;;7402956;19;19922;-76
2023/07/31 08:56:11;;;;;;;9.23;2.83;;;25.80;97.30;;;;;;7400480;19;20342;-75
2023/07/31 08:58:38;;;;;;;5.32;2.80;;;26.00;96.70;;;;;;7401543;19;19923;-75
2023/07/31 09:01:05;;;;;;;9.77;2.72;;;26.00;96.60;;;;;;7402302;19;19930;-76
2023/07/31 09:03:35;;;;;;;8.48;3.25;;;26.10;96.70;;;;;;7405993;19;19942;-76
2023/07/31 09:06:04;;;;;;;7.43;2.60;;;26.30;96.50;;;;;;7404360;19;20602;-75
2023/07/31 09:08:32;;;;;;;6.93;3.00;;;26.40;96.70;;;;;;7406048;19;20002;-75
2023/07/31 09:11:02;;;;;;;7.80;3.20;;;26.40;96.50;;;;;;7399230;19;19915;-75
2023/07/31 09:13:31;;;;;;;7.57;2.92;;;26.70;95.80;;;;;;7403280;19;19907;-74
2023/07/31 09:15:57;;;;;;;9.82;3.20;;;27.10;94.60;;;;;;7398320;19;19918;-74
2023/07/31 09:18:22;;;;;;;10.60;2.70;;;27.10;93.90;;;;;;7397861;19;19969;-74
2023/07/31 09:21:05;;;;;;;11.15;3.00;;;27.20;93.90;;;;;;7404465;19;19925;-75
2023/07/31 09:23:42;;;;;;;8.18;2.53;;;27.00;93.70;;;;;;7398493;19;19957;-75
2023/07/31 09:26:08;;;;;;;10.38;2.78;;;26.80;93.90;;;;;;7399708;19;19915;-74
2023/07/31 09:28:33;;;;;;;14.02;2.85;;;26.70;94.30;;;;;;7403424;19;19999;-75
2023/07/31 09:30:59;;;;;;;8.32;3.00;;;26.60;94.80;;;;;;7399980;19;20424;-74
2023/07/31 09:33:25;;;;;;;8.35;2.60;;;26.90;94.40;;;;;;7400260;19;19935;-75
2023/07/31 09:35:51;;;;;;;7.07;2.70;;;27.00;94.80;;;;;;7397918;19;19922;-75
2023/07/31 09:38:17;;;;;;;11.35;2.65;;;27.10;95.30;;;;;;7394676;19;19934;-75
2023/07/31 09:40:45;;;;;;;10.43;2.35;;;27.10;95.70;;;;;;7404355;19;19915;-80
2023/07/31 09:43:13;;;;;;;8.65;2.65;;;27.50;95.00;;;;;;7404247;19;19922;-73
2023/07/31 09:45:42;;;;;;;7.30;3.17;;;27.20;96.20;;;;;;7352331;19;19918;-77
2023/07/31 09:48:10;;;;;;;8.93;3.13;;;26.80;97.00;;;;;;7398113;19;20323;-77
2023/07/31 09:50:40;;;;;;;6.57;2.10;;;26.80;98.00;;;;;;7406178;19;19942;-79
2023/07/31 09:53:07;;;;;;;7.53;2.58;;;26.70;97.60;;;;;;7404597;19;19948;-77
2023/07/31 09:55:34;;;;;;;6.93;2.45;;;26.90;97.40;;;;;;7409050;19;19911;-78
2023/07/31 09:58:04;;;;;;;7.88;2.40;;;27.00;97.10;;;;;;7399227;19;19919;-78
2023/07/31 10:00:32;;;;;;;5.40;2.28;;;27.10;97.20;;;;;;7406123;19;19930;-78
2023/07/31 10:03:09;;;;;;;14.63;3.47;;;27.30;96.70;;;;;;7404945;19;20499;-78
2023/07/31 10:05:36;;;;;;;7.88;2.72;;;27.50;96.50;;;;;;7401424;19;19998;-76
2023/07/31 10:08:03;;;;;;;10.25;2.85;;;27.80;95.30;;;;;;7400586;19;20335;-77
2023/07/31 10:10:29;;;;;;;6.18;2.83;;;27.90;94.90;;;;;;7401593;19;20320;-77
2023/07/31 10:12:56;;;;;;;6.10;2.40;;;28.10;93.80;;;;;;7405369;19;20740;-78
2023/07/31 10:15:22;;;;;;;5.93;3.42;;;28.50;93.40;;;;;;7392015;19;20631;-77
2023/07/31 10:17:49;;;;;;;;;;;28.70;92.10;;;;;;7403899;19;19974;-77
2023/07/31 10:20:19;;;;;;;8.52;2.70;;;28.70;92.40;;;;;;7400764;19;20633;-78
2023/07/31 10:22:46;;;;;;;9.40;3.15;;;28.40;92.40;;;;;;7397024;19;19996;-77
2023/07/31 10:25:12;;;;;;;6.20;2.80;;;28.30;92.30;;;;;;7403951;19;19947;-77
2023/07/31 10:27:38;;;;;;;;;;;28.50;92.40;;;;;;7402617;19;19918;-76
2023/07/31 10:30:07;;;;;;;10.63;3.53;;;28.70;92.00;;;;;;7387818;19;19954;-77
2023/07/31 10:32:34;;;;;;;5.25;3.03;;;28.50;92.10;;;;;;7388434;19;19922;-78
2023/07/31 10:35:03;;;;;;;6.10;2.90;;;28.50;91.50;;;;;;7396151;19;20019;-77
2023/07/31 10:37:36;;;;;;;7.43;3.70;;;28.30;92.30;;;;;;7399563;19;19922;-76
2023/07/31 10:40:23;;;;;;;9.82;3.20;;;28.50;91.50;;;;;;7400600;19;20259;-77
2023/07/31 10:42:54;;;;;;;9.65;2.58;;;28.80;90.20;;;;;;7397907;19;19919;-76
2023/07/31 10:45:36;;;;;;;7.82;2.95;;;28.90;89.60;;;;;;7394761;19;19910;-77
2023/07/31 10:48:18;;;;;;;6.60;2.78;;;28.60;90.80;;;;;;7391482;19;19911;-76
2023/07/31 10:50:51;;;;;;;5.88;2.50;;;28.30;91.50;;;;;;7392367;19;19918;-76
2023/07/31 10:53:30;;;;;;;5.95;3.03;;;28.20;92.30;;;;;;7395549;19;19930;-76
2023/07/31 10:56:00;;;;;;;8.15;2.80;;;28.30;92.90;;;;;;7399403;19;20019;-76
2023/07/31 10:58:27;;;;;;;7.10;2.55;;;28.50;92.70;;;;;;7397497;19;19947;-76
2023/07/31 11:00:58;;;;;;;10.55;3.30;;;28.30;92.90;;;;;;7389419;19;19939;-77
2023/07/31 11:03:52;;;;;;;9.15;2.63;;;28.10;93.00;;;;;;7396196;19;20268;-75
2023/07/31 11:06:18;;;;;;;11.88;2.90;;;28.00;94.20;;;;;;7386568;19;19914;-75
2023/07/31 11:08:46;;;;;;;6.65;2.45;;;28.40;93.50;;;;;;7390397;19;20011;-74
2023/07/31 11:11:14;;;;;;;8.73;2.78;;;28.70;92.90;;;;;;7372630;19;19919;-75
2023/07/31 11:13:52;;;;;;;8.05;3.00;;;28.60;92.20;;;;;;7407616;19;19918;-74
2023/07/31 11:16:23;;;;;;;7.07;4.45;;;28.70;92.10;;;;;;7392178;19;20739;-75
2023/07/31 11:18:51;;;;;;;6.07;2.20;;;28.90;91.80;;;;;;7400887;19;19939;-75
2023/07/31 11:21:18;;;;;;;10.25;2.90;;;28.70;91.60;;;;;;7397217;19;19918;-74
2023/07/31 11:23:52;;;;;;;6.95;3.30;;;29.00;91.40;;;;;;7390656;19;19960;-75
2023/07/31 11:26:18;;;;;;;8.20;2.72;;;29.10;90.80;;;;;;7401601;19;19910;-75
2023/07/31 11:28:46;;;;;;;;;;;29.30;89.60;;;;;;7403735;19;19930;-76
2023/07/31 11:31:12;;;;;;;7.63;2.80;;;29.10;90.50;;;;;;7398999;19;19927;-75
2023/07/31 11:33:38;;;;;;;10.57;3.53;;;29.00;90.60;;;;;;7397988;19;19930;-74
2023/07/31 11:36:04;;;;;;;11.15;3.15;;;28.50;91.40;;;;;;7395636;19;19918;-74
2023/07/31 11:38:32;;;;;;;7.75;3.10;;;28.20;92.40;;;;;;7404398;19;19918;-74
2023/07/31 11:41:02;;;;;;;8.05;3.13;;;28.10;92.80;;;;;;7393309;19;19922;-75
2023/07/31 11:43:28;;;;;;;10.10;3.30;;;28.10;93.00;;;;;;7400352;19;19934;-74
2023/07/31 11:45:57;;;;;;;8.25;3.90;;;28.00;93.20;;;;;;7404977;19;19934;-74
2023/07/31 11:48:27;;;;;;;11.23;3.10;;;27.70;94.10;;;;;;7398227;19;19921;-75
2023/07/31 11:50:54;;;;;;;10.68;3.25;;;27.80;94.40;;;;;;7387336;19;19986;-75
2023/07/31 11:53:45;;;;;;;11.95;3.05;;;27.40;95.10;;;;;;7393851;19;19952;-73
2023/07/31 11:56:16;;;;;;;5.88;2.75;;;27.50;95.30;;;;;;7392659;19;19978;-74
2023/07/31 11:58:45;;;;;;;10.32;3.25;;;27.20;96.00;;;;;;7381742;19;19974;-75
2023/07/31 12:01:11;;;;;;;6.80;3.88;;;27.20;96.10;;;;;;7376146;19;19937;-74
2023/07/31 12:03:38;;;;;;;12.85;2.92;;;27.50;95.80;;;;;;7401930;19;19928;-74
2023/07/31 12:06:04;;;;;;;10.82;3.67;;;27.70;95.10;;;;;;7400057;19;19918;-74
2023/07/31 12:08:30;;;;;;;8.45;3.03;;;28.50;93.10;;;;;;7400350;19;20349;-74
2023/07/31 12:11:03;;;;;;;11.35;3.30;;;28.70;91.90;;;;;;7396594;19;19922;-74
2023/07/31 12:13:31;;;;;;;9.57;3.00;;;28.70;92.00;;;;;;7395317;19;19974;-74
2023/07/31 12:15:59;;;;;;;10.65;3.25;;;28.80;91.40;;;;;;7394415;19;20371;-74
2023/07/31 12:18:27;;;;;;;7.50;3.53;;;28.70;92.10;;;;;;7367663;19;19943;-74
2023/07/31 12:20:58;;;;;;;9.35;4.05;;;29.30;91.20;;;;;;7397993;19;19906;-74
2023/07/31 12:23:29;;;;;;;7.72;2.55;;;29.80;88.10;;;;;;7397732;19;19918;-74
2023/07/31 12:26:04;;;;;;;10.70;3.70;;;28.80;90.50;;;;;;7389774;19;20318;-74
2023/07/31 12:28:34;;;;;;;11.95;3.22;;;28.40;92.70;;;;;;7399796;19;19907;-75
2023/07/31 12:31:02;;;;;;;7.88;2.53;;;28.70;92.10;;;;;;7393343;19;19954;-74
2023/07/31 12:33:33;;;;;;;9.50;3.90;;;28.30;92.90;;;;;;7396557;19;20316;-75
2023/07/31 12:36:02;;;;;;;7.85;2.83;;;28.20;93.70;;;;;;7368189;19;20343;-74
2023/07/31 12:38:28;;;;;;;10.85;3.50;;;28.40;93.20;;;;;;7397422;19;19914;-74
2023/07/31 12:40:53;;;;;;;8.50;2.60;;;29.00;92.10;;;;;;7404107;19;19918;-74
2023/07/31 12:43:19;;;;;;;10.75;3.30;;;29.00;91.20;;;;;;7397171;19;19926;-75
2023/07/31 12:45:47;;;;;;;11.70;3.33;;;29.10;90.90;;;;;;7394236;19;19919;-78
2023/07/31 12:48:14;;;;;;;11.27;3.47;;;28.80;90.80;;;;;;7393880;19;19914;-78